Terminal Aerodrome Forecast
Issued by NWS

Home | Current Version | Previous Version | Text Only | Print | Product List | Glossary On
Versions: 1 2 3 4 5 6 7 8 9 10 11 12 13 14 15 16 17 18 19
000
FTUS45 KGJT 241133
TAFEGE
TAF
KEGE 241133Z 2412/2512 00000KT P6SM VCFG SCT004 OVC018
      TEMPO 2413/2415 4SM BR SCT002 BKN004
     FM241500 23004KT P6SM FEW060 SCT090
     FM241800 23009KT P6SM FEW080 SCT130
     FM242000 23011G19KT P6SM SCT080 BKN110
     FM250100 24006KT P6SM SCT080 BKN130
      AMD LTD TO CLD VIS AND WIND TIL 241300=

USA.gov is the U.S. government's official web portal to all federal, state and local government web resources and services.